Latest Coastal Weather Observations for Horn Island

IDQ60701

Issued at 10:12 am EST Friday 28 August 2015 (issued every 10 minutes, with the page automatically refreshed every 10 minutes)

About coastal observations | Map of coastal stations | Coastal observations for QLD | Marine services | Other Formats
Station Details ID: 027058 Name: HORN ISLAND Lat: -10.58 Lon: 142.29 Height: 4.0 m
Data from the previous 72 hours. | See also: Recent months at Horn Island
Date/Time
EST
Temp

°C
Wind Pressure Rain
since 9am
mm
Weather Cloud Vis
km
Sea
Height
m
Swell
Dir
 
Speed
knots
Gust
knots
hPa Trend Height
m
Period
s
Dir
28/10:00am 26.6 ESE 17 22 1016.3 - 0.0 - - 10 - - - -
28/09:30am 26.7 ESE 15 21 1016.4 - 0.0 - - 10 - - - -
28/09:00am 26.6 ESE 15 20 1016.2 - 0.0 - Mostly cloudy 10 - - - -
28/08:30am 25.4 ESE 14 19 1016.0 - 0.0 - - 10 - - - -
28/08:00am 25.2 ESE 12 18 1015.8 - 0.0 - - 10 - - - -
28/07:30am 24.6 ESE 11 15 1015.4 - 0.0 - - 10 - - - -
28/07:00am 23.9 SE 12 17 1014.9 - 0.0 - - 10 - - - -
28/06:30am 23.5 SE 13 18 1014.4 - 0.0 - - 10 - - - -
28/06:00am 23.6 SE 12 18 1014.0 - 0.0 - - 10 - - - -
28/05:30am 23.7 SE 12 17 1013.8 - 0.0 - - 10 - - - -
28/05:00am 23.7 SE 11 16 1013.9 - 0.0 - - 10 - - - -
28/04:30am 23.8 ESE 11 15 1013.9 - 0.0 - - 10 - - - -
28/04:00am 23.9 ESE 11 16 1014.1 - 0.0 - - 10 - - - -
28/03:30am 24.0 ESE 11 16 1014.3 - 0.0 - Partly cloudy 10 - - - -
28/03:00am 24.0 ESE 11 16 1014.3 - 0.0 - Mostly clear 10 - - - -
28/02:30am 24.2 ESE 11 18 1014.6 - 0.0 - Partly cloudy 10 - - - -
28/02:00am 24.2 ESE 11 15 1014.8 - 0.0 - Partly cloudy 10 - - - -
28/01:30am 23.8 SE 8 10 1015.2 - 0.0 - - 10 - - - -
28/01:00am 23.8 SE 7 10 1015.5 - 0.0 - Partly cloudy 10 - - - -
28/12:30am 24.1 SE 8 11 1015.8 - 0.0 - Partly cloudy 10 - - - -
28/12:00am 23.9 SE 8 11 1016.1 - 0.0 - Partly cloudy 10 - - - -
 
Date/Time
EST
Temp

°C
Wind Pressure Rain
since 9am
mm
Weather Cloud Vis
km
Sea
Height
m
Swell
Dir
 
Speed
knots
Gust
knots
hPa Trend Height
m
Period
s
Dir
27/11:30pm 23.9 SE 8 12 1016.2 - 0.0 - - 10 - - - -
27/11:00pm 24.0 SE 7 11 1016.3 - 0.0 - Partly cloudy 10 - - - -
27/10:30pm 24.2 SE 9 14 1016.4 - 0.0 - - 10 - - - -
27/10:00pm 24.1 SE 7 11 1016.4 - 0.0 - - 10 - - - -
27/09:30pm 24.3 SE 9 13 1016.4 - 0.0 - - 10 - - - -
27/09:00pm 24.4 SE 9 13 1016.1 - 0.0 - - 10 - - - -
27/08:30pm 24.6 SE 10 14 1015.8 - 0.0 - - 10 - - - -
27/08:00pm 24.7 SE 11 15 1015.4 - 0.0 - - 10 - - - -
27/07:30pm 24.8 SE 9 15 1014.9 - 0.0 - - 10 - - - -
27/07:00pm 25.0 SE 12 16 1014.5 - 0.0 - - 10 - - - -
27/06:30pm 25.2 ESE 12 17 1014.1 - 0.0 - - 10 - - - -
27/06:00pm 25.7 ESE 12 17 1013.6 - 0.0 - - 10 - - - -
27/05:30pm 26.4 ESE 14 19 1013.3 - 0.0 - - 10 - - - -
27/05:00pm 26.6 ESE 15 20 1012.8 - 0.0 - - 10 - - - -
27/04:30pm 27.1 ESE 16 20 1012.7 - 0.0 - Partly cloudy 10 - - - -
27/04:00pm 27.3 ESE 16 22 1012.6 - 0.0 - - 10 - - - -
27/03:30pm 28.0 ESE 18 24 1012.5 - 0.0 - - 10 - - - -
27/03:00pm 27.7 ESE 19 26 1012.7 - 0.0 - Mostly clear 10 - - - -
27/02:30pm 27.2 ESE 18 24 1012.8 - 0.0 - Partly cloudy 10 - - - -
27/02:08pm 27.9 ESE 17 28 1013.1 - 0.0 - - 10 - - - -
27/02:00pm 28.0 ESE 17 25 1013.2 - 0.0 - Partly cloudy 10 - - - -
27/01:30pm 27.5 E 16 22 1013.4 - 0.0 - Partly cloudy 10 - - - -
27/01:00pm 27.4 E 18 27 1013.7 - 0.0 - - 10 - - - -
27/12:30pm 27.7 ESE 19 25 1014.3 - 0.0 - - 10 - - - -
27/12:00pm 27.1 E 17 22 1014.6 - 0.0 - - 10 - - - -
27/11:30am 27.3 ESE 16 23 1015.0 - 0.0 - - 10 - - - -
27/11:00am 26.8 ESE 19 24 1015.3 - 0.0 - - 10 - - - -
27/10:30am 26.6 E 15 24 1015.7 - 0.0 - Partly cloudy 10 - - - -
27/10:00am 25.5 ESE 13 18 1015.8 - 0.0 - Partly cloudy 10 - - - -
27/09:30am 25.4 ESE 14 17 1015.7 - 0.0 - Partly cloudy 10 - - - -
27/09:07am 24.9 ESE 9 14 1015.7 - 0.0 - Partly cloudy 10 - - - -
27/09:00am 24.4 SE 9 13 1015.7 - 1.4 - Cloudy 10 - - - -
27/08:49am 24.1 SE 10 15 1015.8 - 1.2 - Partly cloudy 5 - - - -
27/08:30am 25.2 SE 9 13 1015.4 - 0.0 - Partly cloudy 10 - - - -
27/08:00am 25.1 SE 10 14 1015.2 - 0.0 - Partly cloudy 10 - - - -
27/07:30am 24.8 ESE 10 13 1014.8 - 0.0 - Partly cloudy 10 - - - -
27/07:00am 24.0 ESE 9 14 1014.6 - 0.0 - - 10 - - - -
27/06:30am 23.9 SE 10 13 1014.4 - 0.0 - Partly cloudy 10 - - - -
27/06:00am 24.0 SE 10 13 1014.1 - 0.0 - Partly cloudy 10 - - - -
27/05:30am 23.8 ESE 10 12 1013.7 - 0.0 - - 10 - - - -
27/05:00am 23.9 SE 11 17 1013.4 - 0.0 - - 10 - - - -
27/04:30am 24.1 SE 12 16 1013.2 - 0.0 - Partly cloudy 10 - - - -
27/04:00am 24.3 SE 13 19 1013.2 - 0.0 - Partly cloudy 10 - - - -
27/03:30am 23.9 SE 8 12 1013.2 - 0.0 - Partly cloudy 10 - - - -
27/03:00am 23.5 SSE 6 9 1013.4 - 0.0 - Cloudy 10 - - - -
27/02:30am 23.4 SSE 8 11 1013.6 - 0.0 - Partly cloudy 10 - - - -
27/02:00am 23.6 SE 9 12 1013.8 - 0.0 - Partly cloudy 10 - - - -
27/01:30am 23.7 SSE 5 7 1014.2 - 0.0 - Partly cloudy 10 - - - -
27/01:00am 23.5 SSE 6 10 1014.8 - 0.0 - Partly cloudy 10 - - - -
27/12:30am 23.5 SE 5 6 1015.0 - 0.0 - Partly cloudy 10 - - - -
27/12:00am 23.6 SSE 5 7 1015.3 - 0.0 - - 10 - - - -
 
Date/Time
EST
Temp

°C
Wind Pressure Rain
since 9am
mm
Weather Cloud Vis
km
Sea
Height
m
Swell
Dir
 
Speed
knots
Gust
knots
hPa Trend Height
m
Period
s
Dir
26/11:30pm 23.8 SSE 6 9 1015.6 - 0.0 - Partly cloudy 10 - - - -
26/11:00pm 24.1 SSE 7 11 1015.6 - 0.0 - Partly cloudy 10 - - - -
26/10:30pm 24.1 SSE 7 9 1015.6 - 0.0 - Partly cloudy 10 - - - -
26/10:00pm 24.3 SSE 7 10 1015.7 - 0.0 - Partly cloudy 10 - - - -
26/09:30pm 24.4 SSE 7 10 1015.7 - 0.0 - Partly cloudy 10 - - - -
26/09:00pm 24.5 SE 7 11 1015.5 - 0.0 - Mostly cloudy 10 - - - -
26/08:30pm 24.7 SE 9 12 1015.1 - 0.0 - Partly cloudy 10 - - - -
26/08:00pm 24.8 ESE 10 14 1015.0 - 0.0 - Partly cloudy 10 - - - -
26/07:30pm 24.7 SE 11 16 1014.6 - 0.0 - - 10 - - - -
26/07:00pm 24.8 ESE 11 19 1014.3 - 0.0 - - 10 - - - -
26/06:30pm 25.1 SE 14 18 1013.8 - 0.0 - - 10 - - - -
26/06:00pm 25.7 SE 14 20 1013.5 - 0.0 - Mostly clear 10 - - - -
26/05:30pm 26.2 ESE 14 20 1013.2 - 0.0 - - 10 - - - -
26/05:00pm 26.8 ESE 17 23 1013.0 - 0.0 - - 10 - - - -
26/04:30pm 27.4 ESE 15 21 1012.8 - 0.0 - - 10 - - - -
26/04:00pm 27.2 ESE 18 24 1012.8 - 0.0 - Partly cloudy 10 - - - -
26/03:30pm 27.4 ESE 17 24 1012.8 - 0.0 - - 10 - - - -
26/03:00pm 28.3 ESE 15 21 1012.9 - 0.0 - - 10 - - - -
26/02:30pm 28.4 ESE 16 21 1013.2 - 0.0 - - 10 - - - -
26/02:00pm 28.1 E 18 24 1013.9 - 0.0 - - 10 - - - -
26/01:30pm 28.0 E 17 22 1014.3 - 0.0 - - 10 - - - -
26/01:00pm 28.4 ESE 16 23 1014.7 - 0.0 - - 10 - - - -
26/12:30pm 28.3 ESE 16 23 1015.0 - 0.0 - - 10 - - - -
26/12:00pm 28.2 ESE 14 19 1015.4 - 0.0 - - 10 - - - -
26/11:30am 27.6 ESE 17 24 1015.7 - 0.0 - - 10 - - - -
26/11:00am 27.6 E 16 22 1016.0 - 0.0 - - 10 - - - -
26/10:30am 27.8 ESE 18 22 1016.2 - 0.0 - - 10 - - - -
26/10:00am 27.2 E 20 25 1016.2 - 0.0 - - 10 - - - -
26/09:30am 26.8 ESE 21 26 1016.1 - 0.0 - - 10 - - - -
26/09:00am 26.4 E 18 25 1016.0 - 0.0 - Mostly clear 10 - - - -
26/08:30am 25.9 E 17 25 1015.8 - 0.0 - Partly cloudy 10 - - - -
26/08:07am 25.6 E 15 26 1015.6 - 0.0 - Partly cloudy 10 - - - -
26/08:00am 25.6 E 16 23 1015.5 - 0.0 - - 10 - - - -
26/07:30am 24.9 E 15 23 1015.4 - 0.0 - Partly cloudy 10 - - - -
26/07:00am 24.3 E 15 21 1015.2 - 0.0 - Partly cloudy 10 - - - -
26/06:30am 24.2 E 15 21 1014.8 - 0.0 - Partly cloudy 10 - - - -
26/06:00am 24.2 ESE 16 22 1014.6 - 0.0 - Mostly clear 10 - - - -
26/05:30am 24.2 ESE 16 22 1014.2 - 0.0 - Partly cloudy 10 - - - -
26/05:00am 24.3 ESE 14 19 1014.0 - 0.0 - Partly cloudy 10 - - - -
26/04:30am 24.3 ESE 14 21 1014.0 - 0.0 - Partly cloudy 10 - - - -
26/04:00am 24.2 ESE 16 23 1013.9 - 0.0 - Partly cloudy 10 - - - -
26/03:30am 24.4 ESE 16 21 1014.0 - 0.0 - Partly cloudy 10 - - - -
26/03:00am 24.3 ESE 15 21 1014.1 - 0.0 - Mostly clear 10 - - - -
26/02:30am 24.4 ESE 16 25 1014.2 - 0.0 - Partly cloudy 10 - - - -
26/02:23am 24.3 ESE 15 25 1014.2 - 0.0 - Partly cloudy 10 - - - -
26/02:00am 24.3 ESE 16 22 1014.3 - 0.0 - Partly cloudy 10 - - - -
26/01:30am 24.4 ESE 18 26 1014.5 - 0.0 - Partly cloudy 10 - - - -
26/01:00am 24.5 ESE 16 24 1014.7 - 0.0 - Partly cloudy 10 - - - -
26/12:30am 24.5 ESE 17 25 1015.0 - 0.0 - Partly cloudy 10 - - - -
26/12:00am 24.5 ESE 14 21 1015.6 - 0.0 - Mostly clear 10 - - - -
 
Date/Time
EST
Temp

°C
Wind Pressure Rain
since 9am
mm
Weather Cloud Vis
km
Sea
Height
m
Swell
Dir
 
Speed
knots
Gust
knots
hPa Trend Height
m
Period
s
Dir
25/11:44pm 24.6 ESE 16 26 1015.6 - 0.0 - - 10 - - - -
25/11:30pm 24.7 ESE 17 23 1015.7 - 0.0 - Partly cloudy 10 - - - -
25/11:00pm 24.8 ESE 16 21 1015.8 - 0.0 - Partly cloudy 10 - - - -
25/10:50pm 24.7 ESE 16 26 1015.9 - 0.0 - Partly cloudy 10 - - - -
25/10:30pm 24.8 ESE 15 21 1015.9 - 0.0 - Partly cloudy 10 - - - -
25/10:00pm 24.8 ESE 16 23 1016.1 - 0.0 - Partly cloudy 10 - - - -
25/09:30pm 24.8 ESE 18 25 1015.9 - 0.0 - Partly cloudy 10 - - - -
25/09:00pm 24.7 ESE 17 23 1015.6 - 0.0 - - 10 - - - -
25/08:30pm 24.7 ESE 16 23 1015.5 - 0.0 - Partly cloudy 10 - - - -
25/08:00pm 24.6 ESE 13 18 1015.4 - 0.0 - - 10 - - - -
25/07:30pm 24.8 ESE 14 18 1015.0 - 0.0 - - 10 - - - -
25/07:00pm 24.9 ESE 12 20 1014.8 - 0.0 - - 10 - - - -
25/06:30pm 25.2 ESE 12 16 1014.6 - 0.0 - - 10 - - - -
25/06:00pm 25.7 ESE 15 20 1014.4 - 0.0 - - 10 - - - -
25/05:30pm 26.3 ESE 15 21 1014.2 - 0.0 - - 10 - - - -
25/05:00pm 26.9 ESE 15 23 1014.1 - 0.0 - Partly cloudy 10 - - - -
25/04:30pm 27.7 ESE 16 25 1014.0 - 0.0 - Partly cloudy 10 - - - -
25/04:00pm 27.0 ESE 16 20 1013.9 - 0.0 - Partly cloudy 10 - - - -
25/03:30pm 27.9 ESE 16 22 1014.0 - 0.0 - - 10 - - - -
25/03:00pm 28.2 ESE 18 25 1014.0 - 0.0 - Mostly clear 10 - - - -
25/02:30pm 28.5 ESE 16 22 1014.2 - 0.0 - - 10 - - - -
25/02:00pm 27.7 ESE 19 24 1014.7 - 0.0 - - 10 - - - -
25/01:30pm 27.8 ESE 20 25 1014.9 - 0.0 - - 10 - - - -
25/01:00pm 27.8 ESE 19 24 1015.3 - 0.0 - - 10 - - - -
25/12:30pm 28.4 E 18 24 1015.9 - 0.0 - Partly cloudy 10 - - - -
25/12:00pm 27.5 E 20 27 1016.1 - 0.0 - Mostly clear 10 - - - -
25/11:30am 28.0 ESE 17 23 1016.4 - 0.0 - Partly cloudy 10 - - - -
25/11:00am 27.7 ESE 18 23 1016.7 - 0.0 - Partly cloudy 10 - - - -
25/10:30am 28.0 ESE 16 22 1016.8 - 0.0 - Partly cloudy 10 - - - -

Other Formats:

Comma delimited format used in spreadsheet applications
http://www.bom.gov.au/fwo/IDQ60701/IDQ60701.94174.axf

JavaScript Object Notation format (JSON) in row-major order
http://www.bom.gov.au/fwo/IDQ60701/IDQ60701.94174.json